createdAt,value
2017-12-12T00:00:22.643Z,99.99
2017-12-12T00:01:32.626Z,99.99
2017-12-12T00:02:42.605Z,99.99
2017-12-12T00:03:52.609Z,99.99
2017-12-12T00:05:02.643Z,99.99
2017-12-12T00:06:12.629Z,99.99
2017-12-12T00:07:22.342Z,99.99
2017-12-12T00:08:32.056Z,99.99
2017-12-12T00:09:42.016Z,99.99
2017-12-12T00:10:52.004Z,99.99
2017-12-12T00:12:01.985Z,99.99
2017-12-12T00:13:11.965Z,99.99
2017-12-12T00:14:21.945Z,99.99
2017-12-12T00:15:31.923Z,99.99
2017-12-12T00:16:41.637Z,99.99
2017-12-12T00:17:51.616Z,99.99
2017-12-12T00:19:01.592Z,99.99
2017-12-12T00:20:11.569Z,99.99
2017-12-12T00:21:21.551Z,99.99
2017-12-12T00:22:31.265Z,99.99
2017-12-12T00:23:40.983Z,99.99
2017-12-12T00:24:50.973Z,99.99
2017-12-12T00:26:00.953Z,99.99
2017-12-12T00:27:10.931Z,99.99
2017-12-12T00:28:20.917Z,99.99
2017-12-12T00:29:30.900Z,99.99
2017-12-12T00:30:40.882Z,99.99
2017-12-12T00:31:50.870Z,99.99
2017-12-12T00:33:00.863Z,99.99
2017-12-12T00:34:10.863Z,99.99
2017-12-12T00:35:20.841Z,99.99
2017-12-12T00:36:30.821Z,99.99
2017-12-12T00:37:40.806Z,99.99
2017-12-12T00:38:50.784Z,99.99
2017-12-12T00:40:00.769Z,99.99
2017-12-12T00:41:10.220Z,99.99
2017-12-12T00:42:20.203Z,99.99
2017-12-12T00:43:30.186Z,99.99
2017-12-12T00:44:40.178Z,99.99
2017-12-12T00:45:50.169Z,99.99
2017-12-12T00:47:00.189Z,99.99
2017-12-12T00:48:10.166Z,99.99
2017-12-12T00:49:20.147Z,99.99
2017-12-12T00:50:29.865Z,99.99
2017-12-12T00:51:39.846Z,99.99
2017-12-12T00:52:49.840Z,99.99
2017-12-12T00:53:59.828Z,99.99
2017-12-12T00:55:09.809Z,99.99
2017-12-12T00:56:19.790Z,99.99
2017-12-12T00:57:29.781Z,99.99
2017-12-12T00:58:39.776Z,99.99
2017-12-12T00:59:49.753Z,99.99
2017-12-12T01:00:59.730Z,99.99
2017-12-12T01:02:11.442Z,99.99
2017-12-12T01:03:21.158Z,99.99
2017-12-12T01:04:31.141Z,99.99
2017-12-12T01:05:40.858Z,99.99
2017-12-12T01:06:50.840Z,99.99
2017-12-12T01:08:00.559Z,99.99
2017-12-12T01:09:10.538Z,99.99
2017-12-12T01:10:20.524Z,99.99
2017-12-12T01:11:30.236Z,99.99
2017-12-12T01:12:40.218Z,99.99
2017-12-12T01:13:50.196Z,99.99
2017-12-12T01:15:00.179Z,99.99
2017-12-12T01:16:09.897Z,99.99
2017-12-12T01:17:19.874Z,99.99
2017-12-12T01:18:29.591Z,99.99
2017-12-12T01:19:39.308Z,99.99
2017-12-12T01:20:49.290Z,99.99
2017-12-12T01:21:59.283Z,99.99
2017-12-12T01:23:09.265Z,99.99
2017-12-12T01:24:19.286Z,99.99
2017-12-12T01:25:29.286Z,99.99
2017-12-12T01:26:39.261Z,99.99
2017-12-12T01:27:49.245Z,99.99
2017-12-12T01:28:59.232Z,99.99
2017-12-12T01:30:08.946Z,99.99
2017-12-12T01:31:18.932Z,99.99
2017-12-12T01:32:28.907Z,99.99
2017-12-12T01:33:38.662Z,99.99
2017-12-12T01:34:48.656Z,99.99
2017-12-12T01:35:58.636Z,99.99
2017-12-12T01:37:08.618Z,99.99
2017-12-12T01:38:18.605Z,99.99
2017-12-12T01:39:28.593Z,99.99
2017-12-12T01:40:38.575Z,99.99
2017-12-12T01:41:48.571Z,99.99
2017-12-12T01:42:58.585Z,99.99
2017-12-12T01:44:08.568Z,99.99
2017-12-12T01:45:18.283Z,99.99
2017-12-12T01:46:28.262Z,99.99
2017-12-12T01:47:38.255Z,99.99
2017-12-12T01:48:48.234Z,99.99
2017-12-12T01:49:58.218Z,99.99
2017-12-12T01:51:07.940Z,99.99
2017-12-12T01:52:17.919Z,99.99
2017-12-12T01:53:27.898Z,99.99
2017-12-12T01:54:39.346Z,99.99
2017-12-12T01:55:49.322Z,99.99
2017-12-12T01:56:59.305Z,99.99
2017-12-12T01:58:09.284Z,99.99
2017-12-12T01:59:18.994Z,99.99
2017-12-12T02:00:28.971Z,99.99
2017-12-12T02:01:38.950Z,99.99
2017-12-12T02:02:48.927Z,99.99
2017-12-12T02:03:58.908Z,99.99
2017-12-12T02:05:08.891Z,99.99
2017-12-12T02:06:18.603Z,99.99
2017-12-12T02:07:28.584Z,99.99
2017-12-12T02:08:38.560Z,99.99
2017-12-12T02:09:48.540Z,99.99
2017-12-12T02:10:58.527Z,99.99
2017-12-12T02:12:08.512Z,99.99
2017-12-12T02:13:18.272Z,99.99
2017-12-12T02:14:28.258Z,99.99
2017-12-12T02:15:38.238Z,99.99
2017-12-12T02:16:48.223Z,99.99
2017-12-12T02:17:58.220Z,99.99
2017-12-12T02:19:08.203Z,99.99
2017-12-12T02:20:18.185Z,99.99
2017-12-12T02:21:28.168Z,99.99
2017-12-12T02:22:38.148Z,99.99
2017-12-12T02:23:48.128Z,99.99
2017-12-12T02:24:58.179Z,99.99
2017-12-12T02:26:08.158Z,99.99
2017-12-12T02:27:18.155Z,99.99
2017-12-12T02:28:28.136Z,99.99
2017-12-12T02:29:38.119Z,99.99
2017-12-12T02:30:47.567Z,99.99
2017-12-12T02:31:57.558Z,99.99
2017-12-12T02:33:07.546Z,99.99
2017-12-12T02:34:17.538Z,99.99
2017-12-12T02:35:27.554Z,99.99
2017-12-12T02:36:37.551Z,99.99
2017-12-12T02:37:47.529Z,99.99
2017-12-12T02:38:57.506Z,99.99
2017-12-12T02:40:07.220Z,99.99
2017-12-12T02:41:16.941Z,99.99
2017-12-12T02:42:26.921Z,99.99
2017-12-12T02:43:36.902Z,99.99
2017-12-12T02:44:46.888Z,99.99
2017-12-12T02:45:56.348Z,99.99
2017-12-12T02:47:06.086Z,99.99
2017-12-12T02:48:16.068Z,99.99
2017-12-12T02:49:26.060Z,99.99
2017-12-12T02:50:36.047Z,99.99
2017-12-12T02:51:46.029Z,99.99
2017-12-12T02:52:56.015Z,99.99
2017-12-12T02:54:05.994Z,99.99
2017-12-12T02:55:15.711Z,99.99
2017-12-12T02:56:25.695Z,99.99
2017-12-12T02:57:35.676Z,99.99
2017-12-12T02:58:45.129Z,99.99
2017-12-12T02:59:55.120Z,99.99
2017-12-12T03:01:05.108Z,99.99
2017-12-12T03:02:15.097Z,99.99
2017-12-12T03:03:24.805Z,99.99
2017-12-12T03:04:34.516Z,99.99
2017-12-12T03:05:44.490Z,99.99
2017-12-12T03:06:54.470Z,99.99
2017-12-12T03:08:04.446Z,99.99
2017-12-12T03:09:14.421Z,99.99
2017-12-12T03:10:24.446Z,99.99
2017-12-12T03:11:34.429Z,99.99
2017-12-12T03:12:44.410Z,99.99
2017-12-12T03:13:54.411Z,99.99
2017-12-12T03:15:04.121Z,99.99
2017-12-12T03:16:16.099Z,99.99
2017-12-12T03:17:26.077Z,99.99
2017-12-12T03:18:35.788Z,99.99
2017-12-12T03:19:45.765Z,99.99
2017-12-12T03:20:55.746Z,99.99
2017-12-12T03:22:05.725Z,99.99
2017-12-12T03:23:15.707Z,99.99
2017-12-12T03:24:25.692Z,99.99
2017-12-12T03:25:35.678Z,99.99
2017-12-12T03:26:45.123Z,99.99
2017-12-12T03:27:55.117Z,99.99
2017-12-12T03:29:04.821Z,99.99
2017-12-12T03:30:14.808Z,99.99
2017-12-12T03:31:24.820Z,99.99
2017-12-12T03:32:34.806Z,99.99
2017-12-12T03:33:44.792Z,99.99
2017-12-12T03:34:54.509Z,99.99
2017-12-12T03:36:04.222Z,99.99
2017-12-12T03:37:13.943Z,99.99
2017-12-12T03:38:23.659Z,99.99
2017-12-12T03:39:33.649Z,99.99
2017-12-12T03:40:43.628Z,99.99
2017-12-12T03:41:53.606Z,99.99
2017-12-12T03:43:03.599Z,99.99
2017-12-12T03:44:13.579Z,99.99
2017-12-12T03:45:23.561Z,99.99
2017-12-12T03:46:33.544Z,99.99
2017-12-12T03:47:43.533Z,99.99
2017-12-12T03:48:53.513Z,99.99
2017-12-12T03:50:03.535Z,99.99
2017-12-12T03:51:13.248Z,99.99
2017-12-12T03:52:22.960Z,99.99
2017-12-12T03:53:32.950Z,99.99
2017-12-12T03:54:42.935Z,99.99
2017-12-12T03:55:52.914Z,99.99
2017-12-12T03:57:02.892Z,99.99
2017-12-12T03:58:12.909Z,99.99
2017-12-12T03:59:22.885Z,99.99
2017-12-12T04:03:20.795Z,99.99
2017-12-12T04:04:30.771Z,99.99
2017-12-12T04:05:40.752Z,99.99
2017-12-12T04:06:50.732Z,99.99
2017-12-12T04:08:00.713Z,99.99
2017-12-12T04:09:10.691Z,99.99
2017-12-12T04:10:20.669Z,99.99
2017-12-12T04:11:30.647Z,99.99
2017-12-12T04:12:40.355Z,99.99
2017-12-12T04:13:50.334Z,99.99
2017-12-12T04:15:00.312Z,99.99
2017-12-12T04:16:10.024Z,99.99
2017-12-12T04:17:20.011Z,99.99
2017-12-12T04:18:29.989Z,99.99
2017-12-12T04:19:39.967Z,99.99
2017-12-12T04:20:49.683Z,99.99
2017-12-12T04:21:59.395Z,99.99
2017-12-12T04:23:09.386Z,99.65
2017-12-12T04:24:19.435Z,99.84
2017-12-12T04:25:29.420Z,99.65
2017-12-12T04:26:39.396Z,99.84
2017-12-12T04:27:49.105Z,99.84
2017-12-12T04:28:58.821Z,99.74
2017-12-12T04:30:08.803Z,99.74
2017-12-12T04:31:18.783Z,99.74
2017-12-12T04:32:28.765Z,99.93
2017-12-12T04:33:38.743Z,99.99
2017-12-12T04:34:48.188Z,99.99
2017-12-12T04:35:58.162Z,99.99
2017-12-12T04:37:08.207Z,99.99
2017-12-12T04:38:18.188Z,99.99
2017-12-12T04:39:28.166Z,99.99
2017-12-12T04:40:38.146Z,99.65
2017-12-12T04:41:48.128Z,99.99
2017-12-12T04:42:58.104Z,99.84
2017-12-12T04:44:07.817Z,99.74
2017-12-12T04:45:17.806Z,99.74
2017-12-12T04:46:27.782Z,99.27
2017-12-12T04:47:37.755Z,99.55
2017-12-12T04:48:47.730Z,99.93
2017-12-12T04:49:57.709Z,99.93
2017-12-12T04:51:07.690Z,99.55
2017-12-12T04:52:17.672Z,99.74
2017-12-12T04:53:27.649Z,99.99
2017-12-12T04:54:37.645Z,99.99
2017-12-12T04:55:47.641Z,99.84
2017-12-12T04:56:57.622Z,99.74
2017-12-12T04:58:07.598Z,99.74
2017-12-12T04:59:17.328Z,99.55
2017-12-12T05:00:27.302Z,99.84
2017-12-12T05:01:37.015Z,99.18
2017-12-12T05:02:46.988Z,99.55
2017-12-12T05:03:56.966Z,99.99
2017-12-12T05:05:06.997Z,99.55
2017-12-12T05:06:16.973Z,99.99
2017-12-12T05:07:26.946Z,99.55
2017-12-12T05:08:36.659Z,99.37
2017-12-12T05:09:46.642Z,98.71
2017-12-12T05:10:56.725Z,98.04
2017-12-12T05:12:06.705Z,98.52
2017-12-12T05:13:16.416Z,98.71
2017-12-12T05:14:26.391Z,98.52
2017-12-12T05:15:36.372Z,98.33
2017-12-12T05:16:46.346Z,98.52
2017-12-12T05:17:56.322Z,97.57
2017-12-12T05:19:06.298Z,98.33
2017-12-12T05:20:16.280Z,98.8
2017-12-12T05:21:26.255Z,98.37
2017-12-12T05:22:36.233Z,98.18
2017-12-12T05:23:45.948Z,98.37
2017-12-12T05:24:55.659Z,97.9
2017-12-12T05:26:05.646Z,97.8
2017-12-12T05:27:15.634Z,97.76
2017-12-12T05:28:25.419Z,98.09
2017-12-12T05:29:35.399Z,97.99
2017-12-12T05:30:45.379Z,97.29
2017-12-12T05:31:55.364Z,96.2
2017-12-12T05:33:05.087Z,95.73
2017-12-12T05:34:15.091Z,95.36
2017-12-12T05:35:25.070Z,95.83
2017-12-12T05:36:35.065Z,95.73
2017-12-12T05:37:45.043Z,96.01
2017-12-12T05:38:55.023Z,95.45
2017-12-12T05:40:05.001Z,96.2
2017-12-12T05:41:14.976Z,95.92
2017-12-12T05:42:24.952Z,95.45
2017-12-12T05:43:34.662Z,94.6
2017-12-12T05:44:44.639Z,95.73
2017-12-12T05:45:54.615Z,95.83
2017-12-12T05:47:04.338Z,96.01
2017-12-12T05:48:14.325Z,95.45
2017-12-12T05:49:24.302Z,95.54
2017-12-12T05:50:34.033Z,95.54
2017-12-12T05:51:44.012Z,95.36
2017-12-12T05:52:53.997Z,95.17
2017-12-12T05:54:03.977Z,95.83
2017-12-12T05:55:13.969Z,96.01
2017-12-12T05:56:23.417Z,96.39
2017-12-12T05:57:33.404Z,96.48
2017-12-12T05:58:43.387Z,95.83
2017-12-12T05:59:53.030Z,95.73
2017-12-12T06:01:03.009Z,96.86
2017-12-12T06:02:12.989Z,96.58
2017-12-12T06:03:22.705Z,96.77
2017-12-12T06:04:32.683Z,96.95
2017-12-12T06:05:42.656Z,96.67
2017-12-12T06:06:52.634Z,96.67
2017-12-12T06:08:02.610Z,96.39
2017-12-12T06:09:12.585Z,96.67
2017-12-12T06:10:22.569Z,96.77
2017-12-12T06:11:32.294Z,97.05
2017-12-12T06:12:42.282Z,96.67
2017-12-12T06:13:52.260Z,97.05
2017-12-12T06:15:02.005Z,97.8
2017-12-12T06:16:11.985Z,97.24
2017-12-12T06:17:21.975Z,97.43
2017-12-12T06:18:31.948Z,97.33
2017-12-12T06:19:41.923Z,97.52
2017-12-12T06:20:51.902Z,96.95
2017-12-12T06:22:01.878Z,97.33
2017-12-12T06:23:11.599Z,97.8
2017-12-12T06:24:21.578Z,97.99
2017-12-12T06:25:31.561Z,97.61
2017-12-12T06:26:41.270Z,97.24
2017-12-12T06:27:51.246Z,96.77
2017-12-12T06:29:01.286Z,97.24
2017-12-12T06:30:11.266Z,96.95
2017-12-12T06:31:20.976Z,96.67
2017-12-12T06:32:30.951Z,96.01
2017-12-12T06:33:40.938Z,96.11
2017-12-12T06:34:50.914Z,96.01
2017-12-12T06:36:00.893Z,95.54
2017-12-12T06:37:10.610Z,95.54
2017-12-12T06:38:20.389Z,95.92
2017-12-12T06:39:30.374Z,96.3
2017-12-12T06:40:40.348Z,96.67
2017-12-12T06:41:50.333Z,96.3
2017-12-12T06:43:00.327Z,96.95
2017-12-12T06:44:10.354Z,96.3
2017-12-12T06:45:20.072Z,96.01
2017-12-12T06:46:30.048Z,96.67
2017-12-12T06:47:40.024Z,95.83
2017-12-12T06:48:50.044Z,96.11
2017-12-12T06:50:00.026Z,96.2
2017-12-12T06:51:09.473Z,95.92
2017-12-12T06:52:19.448Z,96.2
2017-12-12T06:53:29.214Z,95.54
2017-12-12T06:54:39.192Z,95.26
2017-12-12T06:55:49.168Z,95.07
2017-12-12T06:56:59.150Z,94.79
2017-12-12T06:58:09.142Z,95.45
2017-12-12T06:59:19.118Z,95.45
2017-12-12T07:00:29.104Z,95.64
2017-12-12T07:01:39.108Z,95.54
2017-12-12T07:02:49.086Z,95.73
2017-12-12T07:03:59.771Z,96.11
2017-12-12T07:05:09.757Z,96.3
2017-12-12T07:06:19.732Z,95.92
2017-12-12T07:07:29.716Z,95.54
2017-12-12T07:08:39.702Z,95.36
2017-12-12T07:09:49.421Z,95.54
2017-12-12T07:10:59.403Z,95.36
2017-12-12T07:12:09.389Z,95.17
2017-12-12T07:13:19.372Z,94.88
2017-12-12T07:14:29.356Z,95.07
2017-12-12T07:15:39.333Z,94.88
2017-12-12T07:16:49.304Z,94.51
2017-12-12T07:17:59.290Z,94.98
2017-12-12T07:19:09.276Z,94.6
2017-12-12T07:20:19.257Z,94.88
2017-12-12T07:21:29.242Z,94.6
2017-12-12T07:22:39.229Z,94.69
2017-12-12T07:23:48.940Z,94.88
2017-12-12T07:24:58.654Z,94.98
2017-12-12T07:26:08.634Z,94.79
2017-12-12T07:27:18.663Z,94.88
2017-12-12T07:28:28.687Z,95.17
2017-12-12T07:29:38.667Z,94.98
2017-12-12T07:30:48.647Z,94.98
2017-12-12T07:31:58.369Z,95.17
2017-12-12T07:33:08.141Z,95.26
2017-12-12T07:34:17.860Z,95.17
2017-12-12T07:35:27.892Z,95.07
2017-12-12T07:36:37.603Z,94.98
2017-12-12T07:37:47.588Z,94.79
2017-12-12T07:38:57.569Z,94.79
2017-12-12T07:40:07.550Z,94.88
2017-12-12T07:41:17.526Z,94.98
2017-12-12T07:42:27.509Z,94.51
2017-12-12T07:43:37.499Z,95.07
2017-12-12T07:44:48.286Z,94.32
2017-12-12T07:45:58.267Z,94.32
2017-12-12T07:47:07.985Z,94.79
2017-12-12T07:48:17.963Z,94.79
2017-12-12T07:49:27.956Z,94.69
2017-12-12T07:50:37.409Z,94.88
2017-12-12T07:51:47.388Z,95.36
2017-12-12T07:52:57.116Z,95.07
2017-12-12T07:54:07.120Z,94.98
2017-12-12T07:55:17.106Z,95.36
2017-12-12T07:56:27.117Z,94.98
2017-12-12T07:57:36.829Z,94.41
2017-12-12T07:58:46.813Z,94.69
2017-12-12T07:59:56.860Z,94.88
2017-12-12T08:01:06.854Z,94.6
2017-12-12T08:02:16.830Z,95.07
2017-12-12T08:03:26.828Z,95.07
2017-12-12T08:04:36.808Z,94.79
2017-12-12T08:05:46.832Z,95.07
2017-12-12T08:06:56.814Z,95.73
2017-12-12T08:08:06.802Z,94.98
2017-12-12T08:09:16.782Z,95.26
2017-12-12T08:10:26.240Z,94.51
2017-12-12T08:11:35.989Z,94.98
2017-12-12T08:12:45.697Z,94.79
2017-12-12T08:13:55.410Z,95.17
2017-12-12T08:15:05.391Z,95.17
2017-12-12T08:16:15.105Z,95.17
2017-12-12T08:17:25.080Z,95.36
2017-12-12T08:18:35.058Z,94.6
2017-12-12T08:19:45.114Z,95.73
2017-12-12T08:20:55.101Z,95.36
2017-12-12T08:22:05.079Z,95.83
2017-12-12T08:23:14.792Z,94.98
2017-12-12T08:24:24.795Z,95.64
2017-12-12T08:25:34.786Z,95.26
2017-12-12T08:26:44.768Z,96.2
2017-12-12T08:27:54.744Z,95.92
2017-12-12T08:29:04.720Z,95.87
2017-12-12T08:30:14.781Z,95.45
2017-12-12T08:31:24.768Z,95.26
2017-12-12T08:32:34.490Z,95.07
2017-12-12T08:33:44.467Z,95.21
2017-12-12T08:34:54.178Z,95.31
2017-12-12T08:36:03.891Z,94.74
2017-12-12T08:37:13.868Z,95.21
2017-12-12T08:38:23.845Z,95.31
2017-12-12T08:39:33.559Z,95.02
2017-12-12T08:40:43.006Z,95.31
2017-12-12T08:41:53.014Z,95.31
2017-12-12T08:43:02.465Z,94.55
2017-12-12T08:44:12.180Z,95.31
2017-12-12T08:45:22.161Z,95.12
2017-12-12T08:46:31.887Z,95.21
2017-12-12T08:47:41.869Z,94.83
2017-12-12T08:48:51.844Z,94.46
2017-12-12T08:50:01.822Z,95.21
2017-12-12T08:51:11.859Z,95.02
2017-12-12T08:52:21.842Z,94.41
2017-12-12T08:53:31.816Z,94.13
2017-12-12T08:54:41.532Z,94.36
2017-12-12T08:55:51.506Z,94.32
2017-12-12T08:57:01.484Z,94.13
2017-12-12T08:58:11.472Z,94.13
2017-12-12T08:59:21.455Z,94.51
2017-12-12T09:00:31.439Z,94.55
2017-12-12T09:01:40.883Z,94.36
2017-12-12T09:02:50.860Z,94.36
2017-12-12T09:04:00.888Z,94.65
2017-12-12T09:05:10.654Z,94.74
2017-12-12T09:06:20.368Z,94.65
2017-12-12T09:07:30.351Z,94.74
2017-12-12T09:08:40.072Z,95.12
2017-12-12T09:09:50.056Z,94.74
2017-12-12T09:10:59.769Z,94.74
2017-12-12T09:12:09.749Z,95.31
2017-12-12T09:13:19.459Z,95.31
2017-12-12T09:14:29.172Z,95.02
2017-12-12T09:15:38.620Z,94.74
2017-12-12T09:16:48.595Z,94.83
2017-12-12T09:17:58.580Z,94.46
2017-12-12T09:19:08.558Z,94.55
2017-12-12T09:20:18.534Z,94.55
2017-12-12T09:21:28.512Z,94.46
2017-12-12T09:22:38.228Z,94.55
2017-12-12T09:23:48.252Z,94.93
2017-12-12T09:24:58.230Z,94.65
2017-12-12T09:26:08.215Z,95.12
2017-12-12T09:27:17.944Z,94.83
2017-12-12T09:28:27.975Z,95.87
2017-12-12T09:29:37.953Z,94.98
2017-12-12T09:30:47.928Z,94.98
2017-12-12T09:31:57.638Z,94.88
2017-12-12T09:33:07.364Z,94.6
2017-12-12T09:34:17.344Z,93.94
2017-12-12T09:35:27.324Z,93.65
2017-12-12T09:36:37.299Z,94.41
2017-12-12T09:37:47.291Z,94.22
2017-12-12T09:38:57.270Z,93.94
2017-12-12T09:40:07.254Z,94.13
2017-12-12T09:41:17.232Z,94.41
2017-12-12T09:42:27.235Z,93.94
2017-12-12T09:43:37.211Z,93.84
2017-12-12T09:44:46.928Z,93.94
2017-12-12T09:45:56.641Z,94.32
2017-12-12T09:47:06.622Z,93.47
2017-12-12T09:48:16.610Z,93.84
2017-12-12T09:49:26.320Z,93.65
2017-12-12T09:50:36.301Z,93.47
2017-12-12T09:51:46.012Z,93.7
2017-12-12T09:52:55.724Z,93.65
2017-12-12T09:54:05.437Z,94.13
2017-12-12T09:55:15.415Z,93.65
2017-12-12T09:56:25.395Z,93.84
2017-12-12T09:57:35.386Z,93.47
2017-12-12T09:58:44.840Z,93.61
2017-12-12T09:59:54.824Z,93.47
2017-12-12T10:01:04.537Z,93.56
2017-12-12T10:02:14.522Z,92.99
2017-12-12T10:03:24.234Z,93.04
2017-12-12T10:04:37.425Z,92.85
2017-12-12T10:05:46.871Z,93.23
2017-12-12T10:06:56.873Z,93.04
2017-12-12T10:08:06.851Z,93.13
2017-12-12T10:09:16.829Z,92.95
2017-12-12T10:10:28.814Z,93.8
2017-12-12T10:11:38.791Z,92.66
2017-12-12T10:12:48.764Z,93.23
2017-12-12T10:13:58.483Z,92.66
2017-12-12T10:15:08.462Z,92.76
2017-12-12T10:16:18.187Z,92.66
2017-12-12T10:17:28.167Z,92.76
2017-12-12T10:18:38.146Z,92.66
2017-12-12T10:19:48.124Z,92.47
2017-12-12T10:20:57.835Z,92.76
2017-12-12T10:22:07.820Z,92.85
2017-12-12T10:23:17.813Z,92.85
2017-12-12T10:24:27.527Z,92.85
2017-12-12T10:25:37.236Z,92.19
2017-12-12T10:26:47.261Z,92.1
2017-12-12T10:27:59.491Z,92.38
2017-12-12T10:29:09.574Z,92.19
2017-12-12T10:30:19.572Z,92.29
2017-12-12T10:31:29.548Z,92
2017-12-12T10:32:39.523Z,91.67
2017-12-12T10:33:49.235Z,91.49
2017-12-12T10:34:59.215Z,90.73
2017-12-12T10:36:09.190Z,90.55
2017-12-12T10:37:19.171Z,90.26
2017-12-12T10:38:28.895Z,88.94
2017-12-12T10:39:38.871Z,88.84
2017-12-12T10:40:48.849Z,88.65
2017-12-12T10:41:58.830Z,88.56
2017-12-12T10:43:08.819Z,87.9
2017-12-12T10:44:18.853Z,87.71
2017-12-12T10:45:28.848Z,87.71
2017-12-12T10:46:38.831Z,87.52
2017-12-12T10:47:48.331Z,87.15
2017-12-12T10:48:58.054Z,87.34
2017-12-12T10:50:07.773Z,86.77
2017-12-12T10:51:17.758Z,87.34
2017-12-12T10:52:27.744Z,86.68
2017-12-12T10:53:37.726Z,86.3
2017-12-12T10:54:47.179Z,85.83
2017-12-12T10:55:57.177Z,86.02
2017-12-12T10:57:07.160Z,86.02
2017-12-12T10:58:17.187Z,86.58
2017-12-12T10:59:27.169Z,85.83
2017-12-12T11:00:37.151Z,86.4
2017-12-12T11:01:46.924Z,85.36
2017-12-12T11:02:56.908Z,85.45
2017-12-12T11:04:06.621Z,85.54
2017-12-12T11:05:16.601Z,85.17
2017-12-12T11:06:26.581Z,85.26
2017-12-12T11:07:36.581Z,84.98
2017-12-12T11:08:45.761Z,85.26
2017-12-12T11:09:55.763Z,84.41
2017-12-12T11:11:05.539Z,84.32
2017-12-12T11:12:15.523Z,84.98
2017-12-12T11:13:25.510Z,84.32
2017-12-12T11:14:35.496Z,84.22
2017-12-12T11:15:45.530Z,84.51
2017-12-12T11:16:55.508Z,83.84
2017-12-12T11:18:05.489Z,83.84
2017-12-12T11:19:15.480Z,83.75
2017-12-12T11:20:25.194Z,83.94
2017-12-12T11:21:35.175Z,83.84
2017-12-12T11:22:45.154Z,83.37
2017-12-12T11:23:55.140Z,83.18
2017-12-12T11:25:04.901Z,83
2017-12-12T11:26:14.888Z,83.04
2017-12-12T11:27:24.867Z,83.14
2017-12-12T11:28:34.842Z,82.19
2017-12-12T11:29:44.828Z,82.28
2017-12-12T11:30:54.810Z,82.1
2017-12-12T11:32:04.789Z,82.38
2017-12-12T11:33:14.771Z,82.19
2017-12-12T11:34:24.485Z,81.43
2017-12-12T11:35:34.467Z,81.72
2017-12-12T11:36:44.228Z,81.81
2017-12-12T11:37:54.210Z,81.72
2017-12-12T11:39:04.200Z,81.34
2017-12-12T11:40:13.928Z,81.68
2017-12-12T11:41:23.907Z,82.15
2017-12-12T11:42:33.887Z,81.24
2017-12-12T11:43:43.863Z,81.43
2017-12-12T11:44:53.841Z,81.4
2017-12-12T11:46:03.560Z,81.11
2017-12-12T11:47:13.012Z,81.87
2017-12-12T11:48:23.001Z,81.72
2017-12-12T11:49:32.985Z,82.15
2017-12-12T11:50:42.972Z,81.34
2017-12-12T11:51:52.951Z,80.58
2017-12-12T11:53:02.977Z,80.77
2017-12-12T11:54:12.432Z,80.21
2017-12-12T11:55:22.445Z,80.58
2017-12-12T11:56:32.164Z,79.93
2017-12-12T11:57:42.141Z,80.4
2017-12-12T11:58:51.867Z,80.02
2017-12-12T12:00:01.847Z,80.58
2017-12-12T12:01:11.834Z,79.74
2017-12-12T12:02:21.888Z,78.7
2017-12-12T12:03:31.608Z,78.79
2017-12-12T12:04:41.599Z,79.17
2017-12-12T12:05:51.581Z,79.74
2017-12-12T12:07:01.562Z,78.83
2017-12-12T12:08:11.279Z,77.89
2017-12-12T12:09:21.263Z,77.51
2017-12-12T12:10:31.247Z,76.95
2017-12-12T12:11:41.228Z,76.95
2017-12-12T12:12:51.217Z,76.28
2017-12-12T12:14:01.203Z,77.42
2017-12-12T12:15:11.193Z,77.23
2017-12-12T12:16:20.920Z,76.95
2017-12-12T12:17:30.651Z,76.95
2017-12-12T12:18:40.630Z,76.76
2017-12-12T12:19:50.622Z,76.57
2017-12-12T12:21:00.075Z,76.47
2017-12-12T12:22:10.058Z,76.28
2017-12-12T12:23:20.068Z,76.76
2017-12-12T12:24:30.049Z,76.76
2017-12-12T12:25:39.770Z,76.95
2017-12-12T12:26:49.751Z,76.47
2017-12-12T12:27:59.783Z,77.32
2017-12-12T12:29:09.787Z,77.04
2017-12-12T12:30:19.784Z,76.66
2017-12-12T12:31:29.319Z,76.57
2017-12-12T12:32:39.307Z,77.23
2017-12-12T12:33:49.303Z,76.95
2017-12-12T12:34:59.295Z,76.7
2017-12-12T12:36:09.019Z,76.61
2017-12-12T12:37:19.006Z,76.04
2017-12-12T12:38:29.002Z,75.09
2017-12-12T12:39:38.988Z,74.81
2017-12-12T12:40:49.072Z,74.9
2017-12-12T12:41:59.061Z,74.62
2017-12-12T12:43:08.781Z,73.83
2017-12-12T12:44:18.499Z,73.45
2017-12-12T12:45:28.492Z,73.74
2017-12-12T12:46:38.474Z,73.93
2017-12-12T12:47:48.195Z,74.3
2017-12-12T12:48:58.180Z,74.45
2017-12-12T12:50:08.173Z,75.21
2017-12-12T12:51:17.898Z,75.68
2017-12-12T12:52:27.878Z,76.9
2017-12-12T12:53:37.858Z,77.56
2017-12-12T12:54:47.838Z,78.23
2017-12-12T12:55:57.822Z,78.85
2017-12-12T12:57:07.809Z,78.94
2017-12-12T12:58:17.795Z,79.22
2017-12-12T12:59:27.835Z,79.13
2017-12-12T13:00:37.814Z,79.69
2017-12-12T13:01:47.794Z,79.32
2017-12-12T13:02:56.981Z,80.07
2017-12-12T13:04:06.431Z,80.92
2017-12-12T13:05:16.142Z,80.83
2017-12-12T13:06:25.855Z,80.73
2017-12-12T13:07:35.836Z,81.3
2017-12-12T13:08:45.289Z,81.68
2017-12-12T13:09:55.278Z,82.06
2017-12-12T13:11:05.268Z,82.29
2017-12-12T13:12:15.250Z,82.95
2017-12-12T13:13:24.970Z,83.52
2017-12-12T13:14:34.956Z,83.8
2017-12-12T13:15:44.666Z,84.37
2017-12-12T13:16:54.646Z,85.6
2017-12-12T13:18:04.628Z,85.97
2017-12-12T13:19:14.348Z,85.78
2017-12-12T13:20:24.406Z,86.35
2017-12-12T13:21:34.126Z,87.1
2017-12-12T13:22:43.837Z,87.38
2017-12-12T13:23:53.818Z,87.19
2017-12-12T13:25:03.844Z,86.25
2017-12-12T13:26:13.820Z,87.1
2017-12-12T13:27:23.547Z,87.67
2017-12-12T13:28:33.530Z,89.13
2017-12-12T13:29:43.513Z,89.89
2017-12-12T13:30:52.960Z,90.73
2017-12-12T13:32:02.941Z,91.58
2017-12-12T13:33:12.923Z,92.14
2017-12-12T13:34:22.951Z,92.14
2017-12-12T13:35:32.663Z,92.62
2017-12-12T13:36:42.377Z,92.24
2017-12-12T13:37:52.351Z,92.14
2017-12-12T13:39:02.063Z,92.9
2017-12-12T13:40:12.044Z,92.33
2017-12-12T13:41:22.020Z,92.14
2017-12-12T13:42:31.996Z,92.71
2017-12-12T13:43:41.716Z,92.52
2017-12-12T13:44:51.431Z,91.77
2017-12-12T13:46:01.412Z,92.8
2017-12-12T13:47:11.394Z,93.18
2017-12-12T13:48:21.373Z,93.28
2017-12-12T13:49:31.354Z,93.18
2017-12-12T13:50:40.795Z,93.56
2017-12-12T13:51:50.895Z,93.65
2017-12-12T13:53:00.682Z,94.5
2017-12-12T13:54:10.393Z,94.5
2017-12-12T13:55:20.101Z,94.6
2017-12-12T13:56:30.087Z,95.07
2017-12-12T13:57:40.065Z,94.88
2017-12-12T13:58:50.045Z,95.26
2017-12-12T14:00:00.040Z,94.79
2017-12-12T14:01:10.022Z,94.5
2017-12-12T14:02:20.000Z,94.6
2017-12-12T14:03:29.710Z,94.79
2017-12-12T14:04:39.685Z,94.5
2017-12-12T14:05:49.662Z,94.31
2017-12-12T14:06:59.482Z,95.16
2017-12-12T14:08:09.469Z,95.16
2017-12-12T14:09:19.444Z,94.31
2017-12-12T14:10:29.417Z,95.54
2017-12-12T14:11:39.133Z,95.64
2017-12-12T14:12:49.122Z,95.82
2017-12-12T14:13:59.094Z,95.73
2017-12-12T14:15:09.071Z,95.82
2017-12-12T14:16:19.057Z,95.45
2017-12-12T14:17:29.072Z,95.35
2017-12-12T14:18:39.089Z,95.35
2017-12-12T14:19:48.800Z,95.26
2017-12-12T14:20:58.508Z,95.26
2017-12-12T14:22:08.225Z,95.35
2017-12-12T14:23:18.203Z,95.07
2017-12-12T14:24:28.184Z,94.88
2017-12-12T14:25:37.901Z,95.07
2017-12-12T14:26:50.178Z,95.26
2017-12-12T14:27:59.890Z,95.64
2017-12-12T14:29:09.865Z,95.54
2017-12-12T14:30:19.575Z,96.2
2017-12-12T14:31:29.553Z,96.86
2017-12-12T14:32:39.525Z,96.77
2017-12-12T14:33:49.500Z,96.3
2017-12-12T14:34:59.476Z,96.3
2017-12-12T14:36:08.922Z,95.64
2017-12-12T14:37:18.893Z,96.11
2017-12-12T14:38:28.870Z,96.3
2017-12-12T14:39:38.844Z,96.2
2017-12-12T14:40:48.566Z,95.92
2017-12-12T14:41:58.539Z,95.64
2017-12-12T14:43:08.514Z,96.11
2017-12-12T14:44:18.497Z,96.2
2017-12-12T14:45:28.470Z,96.77
2017-12-12T14:46:38.453Z,96.58
2017-12-12T14:47:48.479Z,96.01
2017-12-12T14:48:58.461Z,96.01
2017-12-12T14:50:08.436Z,96.58
2017-12-12T14:51:17.880Z,96.91
2017-12-12T14:52:27.853Z,96.72
2017-12-12T14:53:37.842Z,97.28
2017-12-12T14:54:47.818Z,97.38
2017-12-12T14:55:57.853Z,98.13
2017-12-12T14:57:07.559Z,98.6
2017-12-12T14:58:17.270Z,98.32
2017-12-12T14:59:27.244Z,98.6
2017-12-12T15:00:37.220Z,98.22
2017-12-12T15:01:46.928Z,98.46
2017-12-12T15:02:56.910Z,97.47
2017-12-12T15:04:06.893Z,97.19
2017-12-12T15:05:16.864Z,97.47